createdAt,value
2022-12-28T00:01:08.559Z,82.42
2022-12-28T00:03:38.478Z,82.22
2022-12-28T00:06:08.817Z,82.22
2022-12-28T00:08:38.492Z,82.34
2022-12-28T00:11:20.361Z,82.22
2022-12-28T00:13:57.476Z,81.92
2022-12-28T00:16:29.606Z,81.94
2022-12-28T00:18:59.927Z,81.80
2022-12-28T00:21:30.141Z,81.77
2022-12-28T00:24:01.122Z,81.83
2022-12-28T00:26:34.665Z,81.75
2022-12-28T00:29:05.932Z,81.51
2022-12-28T00:31:36.321Z,81.75
2022-12-28T00:34:06.952Z,81.56
2022-12-28T00:37:08.970Z,81.53
2022-12-28T00:39:26.170Z,81.51
2022-12-28T00:41:58.375Z,81.35
2022-12-28T00:44:28.154Z,81.73
2022-12-28T00:46:57.698Z,81.94
2022-12-28T00:49:27.281Z,82.04
2022-12-28T00:51:56.808Z,82.34
2022-12-28T00:54:27.009Z,82.77
2022-12-28T00:56:59.161Z,82.86
2022-12-28T00:59:28.742Z,83.33
2022-12-28T01:01:58.428Z,83.50
2022-12-28T01:04:28.051Z,83.63
2022-12-28T01:06:58.050Z,83.80
2022-12-28T01:09:27.620Z,83.79
2022-12-28T01:12:00.282Z,83.83
2022-12-28T01:14:29.830Z,83.85
2022-12-28T01:16:59.463Z,84.05
2022-12-28T01:19:29.106Z,84.16
2022-12-28T01:21:58.646Z,84.19
2022-12-28T01:24:28.213Z,84.44
2022-12-28T01:27:00.316Z,84.71
2022-12-28T01:29:29.891Z,84.76
2022-12-28T01:31:59.553Z,85.28
2022-12-28T01:34:29.128Z,85.46
2022-12-28T01:36:58.736Z,85.65
2022-12-28T01:39:30.445Z,86.02
2022-12-28T01:42:04.228Z,86.00
2022-12-28T01:44:46.006Z,86.42
2022-12-28T01:47:18.229Z,86.26
2022-12-28T01:49:54.759Z,86.54
2022-12-28T01:52:27.668Z,86.73
2022-12-28T01:55:00.250Z,86.52
2022-12-28T01:57:35.553Z,86.74
2022-12-28T02:00:08.711Z,86.96
2022-12-28T02:02:51.433Z,86.67
2022-12-28T02:05:22.548Z,86.82
2022-12-28T02:07:55.869Z,86.98
2022-12-28T02:10:41.423Z,86.83
2022-12-28T02:13:17.450Z,86.73
2022-12-28T02:15:47.977Z,86.66
2022-12-28T02:18:18.158Z,86.41
2022-12-28T02:21:05.846Z,86.41
2022-12-28T02:23:52.845Z,86.58
2022-12-28T02:26:39.293Z,86.29
2022-12-28T02:29:40.280Z,86.42
2022-12-28T02:32:19.748Z,86.13
2022-12-28T02:34:52.816Z,86.38
2022-12-28T02:37:27.510Z,86.06
2022-12-28T02:40:00.744Z,86.10
2022-12-28T02:42:32.088Z,86.07
2022-12-28T02:45:28.466Z,86.18
2022-12-28T02:48:10.531Z,86.04
2022-12-28T02:50:45.345Z,85.85
2022-12-28T02:53:32.831Z,86.09
2022-12-28T02:56:08.958Z,86.01
2022-12-28T02:59:12.420Z,85.65
2022-12-28T03:01:58.966Z,85.82
2022-12-28T03:04:35.285Z,85.66
2022-12-28T03:07:23.868Z,85.81
2022-12-28T03:09:56.365Z,85.79
2022-12-28T03:12:28.257Z,85.75
2022-12-28T03:15:03.972Z,85.68
2022-12-28T03:17:51.505Z,85.64
2022-12-28T03:20:37.031Z,85.73
2022-12-28T03:23:21.446Z,85.70
2022-12-28T03:26:04.434Z,85.46
2022-12-28T03:28:54.531Z,85.37
2022-12-28T03:31:26.633Z,85.49
2022-12-28T03:34:09.268Z,85.28
2022-12-28T03:36:48.085Z,85.63
2022-12-28T03:39:35.186Z,85.32
2022-12-28T03:42:24.309Z,85.38
2022-12-28T03:44:57.760Z,85.53
2022-12-28T03:47:28.671Z,85.47
2022-12-28T03:50:01.146Z,85.13
2022-12-28T03:52:31.078Z,85.23
2022-12-28T03:55:00.729Z,85.21
2022-12-28T03:57:30.665Z,85.12
2022-12-28T04:00:00.449Z,85.21
2022-12-28T04:02:30.266Z,84.95
2022-12-28T04:05:02.524Z,84.84
2022-12-28T04:07:32.196Z,84.78
2022-12-28T04:10:02.225Z,84.87
2022-12-28T04:12:32.281Z,84.79
2022-12-28T04:15:18.983Z,84.79
2022-12-28T04:17:48.575Z,84.55
2022-12-28T04:20:20.785Z,84.54
2022-12-28T04:22:52.487Z,84.59
2022-12-28T04:25:22.108Z,84.63
2022-12-28T04:27:51.771Z,84.63
2022-12-28T04:30:44.027Z,84.81
2022-12-28T04:33:13.676Z,84.61
2022-12-28T04:35:48.735Z,84.48
2022-12-28T04:38:18.862Z,84.44
2022-12-28T04:40:48.579Z,84.56
2022-12-28T04:43:18.161Z,84.61
2022-12-28T04:45:47.727Z,84.54
2022-12-28T04:48:17.290Z,84.79
2022-12-28T04:50:49.845Z,84.92
2022-12-28T04:53:19.434Z,84.92
2022-12-28T04:55:49.018Z,85.27
2022-12-28T04:58:18.750Z,85.32
2022-12-28T05:00:48.342Z,85.47
2022-12-28T05:03:17.993Z,85.59
2022-12-28T05:05:50.141Z,85.69
2022-12-28T05:08:19.747Z,85.86
2022-12-28T05:10:49.313Z,85.91
2022-12-28T05:13:18.902Z,85.91
2022-12-28T05:15:48.491Z,86.01
2022-12-28T05:18:18.102Z,85.87
2022-12-28T05:20:50.324Z,85.96
2022-12-28T05:23:19.952Z,86.11
2022-12-28T05:25:55.583Z,86.02
2022-12-28T05:28:25.486Z,86.03
2022-12-28T05:30:55.565Z,85.85
2022-12-28T05:33:25.142Z,85.68
2022-12-28T05:35:57.298Z,85.86
2022-12-28T05:38:27.595Z,85.78
2022-12-28T05:40:57.150Z,85.48
2022-12-28T05:43:26.716Z,85.52
2022-12-28T05:45:56.316Z,85.45
2022-12-28T05:48:25.910Z,85.31
2022-12-28T05:51:01.492Z,85.34
2022-12-28T05:53:32.439Z,85.46
2022-12-28T05:56:09.508Z,85.15
2022-12-28T05:58:43.773Z,85.22
2022-12-28T06:01:15.256Z,85.14
2022-12-28T06:03:45.524Z,85.28
2022-12-28T06:06:19.374Z,84.94
2022-12-28T06:08:50.611Z,84.90
2022-12-28T06:11:22.236Z,84.74
2022-12-28T06:13:52.425Z,84.53
2022-12-28T06:16:23.733Z,84.42
2022-12-28T06:18:53.959Z,84.60
2022-12-28T06:21:27.760Z,84.36
2022-12-28T06:23:58.260Z,84.27
2022-12-28T06:26:29.435Z,84.32
2022-12-28T06:28:59.372Z,84.06
2022-12-28T06:31:30.577Z,84.09
2022-12-28T06:34:01.343Z,83.86
2022-12-28T06:36:35.307Z,83.63
2022-12-28T06:39:06.795Z,83.37
2022-12-28T06:41:36.430Z,83.30
2022-12-28T06:44:09.194Z,83.11
2022-12-28T06:46:38.964Z,83.32
2022-12-28T06:49:08.871Z,82.82
2022-12-28T06:51:42.257Z,82.73
2022-12-28T06:54:13.049Z,82.82
2022-12-28T06:56:42.662Z,82.46
2022-12-28T06:59:12.240Z,82.43
2022-12-28T07:01:44.886Z,82.11
2022-12-28T07:04:14.925Z,82.19
2022-12-28T07:06:47.282Z,82.04
2022-12-28T07:09:18.211Z,81.82
2022-12-28T07:11:48.150Z,81.80
2022-12-28T07:14:17.756Z,81.77
2022-12-28T07:16:47.383Z,81.89
2022-12-28T07:19:16.966Z,82.29
2022-12-28T07:21:49.124Z,82.50
2022-12-28T07:24:18.693Z,82.70
2022-12-28T07:26:48.312Z,82.97
2022-12-28T07:29:17.876Z,83.38
2022-12-28T07:31:47.531Z,83.23
2022-12-28T07:34:17.686Z,83.35
2022-12-28T07:36:51.557Z,83.57
2022-12-28T07:39:21.135Z,83.82
2022-12-28T07:41:50.742Z,83.81
2022-12-28T07:44:27.967Z,83.85
2022-12-28T07:46:59.167Z,84.02
2022-12-28T07:49:28.730Z,83.82
2022-12-28T07:52:00.908Z,83.88
2022-12-28T07:54:30.497Z,84.03
2022-12-28T07:57:00.177Z,84.01
2022-12-28T07:59:31.241Z,83.82
2022-12-28T08:02:01.410Z,83.84
2022-12-28T08:04:31.043Z,83.65
2022-12-28T08:07:03.212Z,83.55
2022-12-28T08:09:32.797Z,83.55
2022-12-28T08:12:02.572Z,83.52
2022-12-28T08:14:32.318Z,83.51
2022-12-28T08:17:01.999Z,83.46
2022-12-28T08:19:31.591Z,83.37
2022-12-28T08:22:03.774Z,83.32
2022-12-28T08:24:33.342Z,83.16
2022-12-28T08:27:02.911Z,82.97
2022-12-28T08:29:32.748Z,82.76
2022-12-28T08:32:02.367Z,82.92
2022-12-28T08:34:31.983Z,82.70
2022-12-28T08:37:04.120Z,82.58
2022-12-28T08:39:33.759Z,82.37
2022-12-28T08:42:03.873Z,82.18
2022-12-28T08:44:33.503Z,82.20
2022-12-28T08:47:03.290Z,81.83
2022-12-28T08:49:32.903Z,81.82
2022-12-28T08:52:05.028Z,81.91
2022-12-28T08:54:34.606Z,81.71
2022-12-28T08:57:04.175Z,81.67
2022-12-28T08:59:33.767Z,81.65
2022-12-28T09:02:03.486Z,81.37
2022-12-28T09:04:33.374Z,81.43
2022-12-28T09:07:05.953Z,81.23
2022-12-28T09:09:36.381Z,81.24
2022-12-28T09:12:07.349Z,81.11
2022-12-28T09:14:36.933Z,81.20
2022-12-28T09:17:06.565Z,81.19
2022-12-28T09:19:36.183Z,81.31
2022-12-28T09:22:08.340Z,81.05
2022-12-28T09:24:37.931Z,81.05
2022-12-28T09:27:07.486Z,81.11
2022-12-28T09:29:38.897Z,80.92
2022-12-28T09:32:08.660Z,80.83
2022-12-28T09:34:38.562Z,80.88
2022-12-28T09:37:11.198Z,80.84
2022-12-28T09:39:40.814Z,80.70
2022-12-28T09:42:16.639Z,80.55
2022-12-28T09:44:53.473Z,80.49
2022-12-28T09:47:32.085Z,80.50
2022-12-28T09:50:25.914Z,80.41
2022-12-28T09:53:05.895Z,80.21
2022-12-28T09:55:35.830Z,80.21
2022-12-28T09:58:06.978Z,80.20
2022-12-28T10:00:42.307Z,79.84
2022-12-28T10:03:18.007Z,79.88
2022-12-28T10:05:47.915Z,79.75
2022-12-28T10:08:22.231Z,79.62
2022-12-28T10:10:53.016Z,79.58
2022-12-28T10:16:22.615Z,79.52
2022-12-28T10:18:52.451Z,79.54
2022-12-28T10:21:30.112Z,79.33
2022-12-28T10:24:31.031Z,79.24
2022-12-28T10:26:55.805Z,79.22
2022-12-28T10:29:27.243Z,79.14
2022-12-28T10:32:02.555Z,78.92
2022-12-28T10:34:34.328Z,78.94
2022-12-28T10:37:14.365Z,78.86
2022-12-28T10:39:53.436Z,78.81
2022-12-28T10:42:29.154Z,78.67
2022-12-28T10:45:04.323Z,78.59
2022-12-28T10:47:38.379Z,78.48
2022-12-28T10:50:36.507Z,78.42
2022-12-28T10:53:07.247Z,78.28
2022-12-28T10:55:39.901Z,78.04
2022-12-28T10:58:29.644Z,77.88
2022-12-28T11:01:02.389Z,77.90
2022-12-28T11:03:38.533Z,77.89
2022-12-28T11:06:13.576Z,77.43
2022-12-28T11:08:45.286Z,77.39
2022-12-28T11:11:25.767Z,77.34
2022-12-28T11:13:57.871Z,77.21
2022-12-28T11:16:27.849Z,77.02
2022-12-28T11:18:58.428Z,77.18
2022-12-28T11:21:28.063Z,77.09
2022-12-28T11:23:57.694Z,77.07
2022-12-28T11:26:31.358Z,77.03
2022-12-28T11:29:00.963Z,77.08
2022-12-28T11:31:34.557Z,77.00
2022-12-28T11:34:06.272Z,76.87
2022-12-28T11:36:41.718Z,76.84
2022-12-28T11:39:33.788Z,76.69
2022-12-28T11:44:56.314Z,76.74
2022-12-28T11:47:33.902Z,76.61
2022-12-28T11:50:36.840Z,76.37
2022-12-28T11:53:13.718Z,76.55
2022-12-28T11:55:49.812Z,76.64
2022-12-28T11:58:54.399Z,76.63
2022-12-28T12:01:48.138Z,76.71
2022-12-28T12:04:21.653Z,76.79
2022-12-28T12:07:32.339Z,76.62
2022-12-28T12:10:38.894Z,76.82
2022-12-28T12:13:38.148Z,76.66
2022-12-28T12:16:12.069Z,76.83
2022-12-28T12:18:48.081Z,76.71
2022-12-28T12:21:27.166Z,76.94
2022-12-28T12:23:59.671Z,77.08
2022-12-28T12:26:37.956Z,77.26
2022-12-28T12:29:10.145Z,77.62
2022-12-28T12:31:45.561Z,77.51
2022-12-28T12:34:20.811Z,77.78
2022-12-28T12:37:09.474Z,77.68
2022-12-28T12:40:11.733Z,77.56
2022-12-28T12:42:50.641Z,77.73
2022-12-28T12:45:26.278Z,77.73
2022-12-28T12:48:06.724Z,77.69
2022-12-28T12:51:00.906Z,77.64
2022-12-28T12:53:48.448Z,77.63
2022-12-28T12:56:30.192Z,77.65
2022-12-28T12:59:08.310Z,77.62
2022-12-28T13:01:44.336Z,77.51
2022-12-28T13:04:19.258Z,77.48
2022-12-28T13:06:52.497Z,77.30
2022-12-28T13:09:22.851Z,77.43
2022-12-28T13:11:52.491Z,77.45
2022-12-28T13:14:23.259Z,77.46
2022-12-28T13:16:56.781Z,77.23
2022-12-28T13:19:28.350Z,77.21
2022-12-28T13:22:01.431Z,77.25
2022-12-28T13:24:32.990Z,76.88
2022-12-28T13:27:09.005Z,76.88
2022-12-28T13:29:42.183Z,76.67
2022-12-28T13:32:29.394Z,76.58
2022-12-28T13:35:02.844Z,76.82
2022-12-28T13:37:34.998Z,76.66
2022-12-28T13:40:14.406Z,76.61
2022-12-28T13:42:50.243Z,76.91
2022-12-28T13:45:23.049Z,76.76
2022-12-28T13:47:53.816Z,76.90
2022-12-28T13:50:24.858Z,76.99
2022-12-28T13:53:00.474Z,76.89
2022-12-28T13:55:32.794Z,76.70
2022-12-28T13:58:05.349Z,76.59
2022-12-28T14:00:36.267Z,76.71
2022-12-28T14:03:10.742Z,76.65
2022-12-28T14:05:40.450Z,76.39
2022-12-28T14:08:12.858Z,76.29
2022-12-28T14:10:42.875Z,76.30
2022-12-28T14:13:13.250Z,76.08
2022-12-28T14:15:43.333Z,75.82
2022-12-28T14:18:16.703Z,75.64
2022-12-28T14:20:50.770Z,75.63
2022-12-28T14:23:27.578Z,75.53
2022-12-28T14:25:59.495Z,75.30
2022-12-28T14:28:36.459Z,75.57
2022-12-28T14:31:09.193Z,75.62
2022-12-28T14:33:40.405Z,75.43
2022-12-28T14:36:11.361Z,75.26
2022-12-28T14:38:48.963Z,75.20
2022-12-28T14:41:21.202Z,74.91
2022-12-28T14:43:54.848Z,74.95
2022-12-28T14:46:33.060Z,74.88
2022-12-28T14:49:03.527Z,74.98
2022-12-28T14:51:35.160Z,74.70
2022-12-28T14:54:26.263Z,74.30
2022-12-28T14:56:58.106Z,74.30
2022-12-28T14:59:30.481Z,73.95
2022-12-28T15:02:00.338Z,73.79
2022-12-28T15:04:41.215Z,73.48
2022-12-28T15:07:12.348Z,73.42
2022-12-28T15:09:45.732Z,73.38
2022-12-28T15:12:17.897Z,73.31
2022-12-28T15:14:47.741Z,73.34
2022-12-28T15:17:18.405Z,73.08
2022-12-28T15:19:48.385Z,73.06
2022-12-28T15:22:18.629Z,72.87
2022-12-28T15:24:51.383Z,72.84
2022-12-28T15:27:20.965Z,72.80
2022-12-28T15:30:07.120Z,72.62
2022-12-28T15:32:37.981Z,72.76
2022-12-28T15:35:09.262Z,72.55
2022-12-28T15:37:38.852Z,72.67
2022-12-28T15:40:14.057Z,72.74
2022-12-28T15:42:46.938Z,72.44
2022-12-28T15:45:16.861Z,72.57
2022-12-28T15:47:47.150Z,72.47
2022-12-28T15:50:16.727Z,72.54
2022-12-28T15:52:46.300Z,72.46
2022-12-28T15:55:18.620Z,72.36
2022-12-28T15:57:48.203Z,72.24
2022-12-28T16:00:21.481Z,72.00
2022-12-28T16:02:51.339Z,72.05
2022-12-28T16:05:21.084Z,72.01
2022-12-28T16:07:50.728Z,71.68
2022-12-28T16:10:22.974Z,71.61
2022-12-28T16:12:52.515Z,71.61
2022-12-28T16:15:22.271Z,71.52
2022-12-28T16:17:57.295Z,71.31
2022-12-28T16:20:27.282Z,71.26
2022-12-28T16:22:56.860Z,71.47
2022-12-28T16:25:29.011Z,70.93
2022-12-28T16:27:58.580Z,71.02
2022-12-28T16:30:28.189Z,70.88
2022-12-28T16:32:57.850Z,70.81
2022-12-28T16:35:27.527Z,70.72
2022-12-28T16:37:57.072Z,70.63
2022-12-28T16:40:29.219Z,70.63
2022-12-28T16:42:58.786Z,70.74
2022-12-28T16:45:28.375Z,70.73
2022-12-28T16:47:57.987Z,70.62
2022-12-28T16:50:27.580Z,70.54
2022-12-28T16:53:00.921Z,70.31
2022-12-28T16:55:35.795Z,70.20
2022-12-28T16:58:05.373Z,70.23
2022-12-28T17:00:35.246Z,70.05
2022-12-28T17:03:04.853Z,70.30
2022-12-28T17:05:34.868Z,70.34
2022-12-28T17:08:04.919Z,70.62
2022-12-28T17:10:37.410Z,70.54
2022-12-28T17:13:07.023Z,70.75
2022-12-28T17:15:36.684Z,71.16
2022-12-28T17:18:06.483Z,71.18
2022-12-28T17:20:38.945Z,71.26
2022-12-28T17:23:09.338Z,71.79
2022-12-28T17:25:41.920Z,72.07
2022-12-28T17:28:11.754Z,72.24
2022-12-28T17:30:41.322Z,72.89
2022-12-28T17:33:11.616Z,73.32
2022-12-28T17:35:41.231Z,73.84
2022-12-28T17:38:10.895Z,74.41
2022-12-28T17:40:44.267Z,74.82
2022-12-28T17:43:13.847Z,75.15
2022-12-28T17:45:44.020Z,75.66
2022-12-28T17:48:13.778Z,76.08
2022-12-28T17:50:45.075Z,76.37
2022-12-28T17:53:14.646Z,76.71
2022-12-28T17:55:46.821Z,77.04
2022-12-28T17:58:16.420Z,77.70
2022-12-28T18:00:45.971Z,77.78
2022-12-28T18:03:15.609Z,78.23
2022-12-28T18:05:45.260Z,78.37
2022-12-28T18:08:14.847Z,78.66
2022-12-28T18:10:47.616Z,79.07
2022-12-28T18:13:17.848Z,79.29
2022-12-28T18:15:48.236Z,79.75
2022-12-28T18:18:19.716Z,80.06
2022-12-28T18:20:58.534Z,80.56
2022-12-28T18:23:28.222Z,80.84
2022-12-28T18:26:07.103Z,81.05
2022-12-28T18:28:37.275Z,81.26
2022-12-28T18:31:07.908Z,81.86
2022-12-28T18:33:38.058Z,82.29
2022-12-28T18:36:15.446Z,82.73
2022-12-28T18:38:47.316Z,83.26
2022-12-28T18:41:21.235Z,83.80
2022-12-28T18:43:51.465Z,84.38
2022-12-28T18:46:21.197Z,84.71
2022-12-28T18:48:50.793Z,85.04
2022-12-28T18:51:21.143Z,85.27
2022-12-28T18:53:50.986Z,85.95
2022-12-28T18:56:24.735Z,86.19
2022-12-28T18:58:55.892Z,86.20
2022-12-28T19:04:17.430Z,86.81
2022-12-28T19:06:47.330Z,86.92
2022-12-28T19:09:17.248Z,87.02
2022-12-28T19:11:49.409Z,87.40
2022-12-28T19:14:19.082Z,87.67
2022-12-28T19:16:48.745Z,87.79
2022-12-28T19:19:18.978Z,88.26
2022-12-28T19:21:52.327Z,88.60
2022-12-28T19:24:24.655Z,88.53
2022-12-28T19:26:56.792Z,88.97
2022-12-28T19:29:26.541Z,89.28
2022-12-28T19:31:56.555Z,89.47
2022-12-28T19:34:26.174Z,89.62
2022-12-28T19:36:55.739Z,89.83
2022-12-28T19:39:25.311Z,90.10
2022-12-28T19:41:57.492Z,90.21
2022-12-28T19:44:27.058Z,90.35
2022-12-28T19:46:56.696Z,90.57
2022-12-28T19:49:26.503Z,90.91
2022-12-28T19:51:56.845Z,91.14
2022-12-28T19:54:26.442Z,91.06
2022-12-28T19:56:58.632Z,91.39
2022-12-28T19:59:28.380Z,91.56
2022-12-28T20:01:58.026Z,91.73
2022-12-28T20:04:28.145Z,91.93
2022-12-28T20:06:57.727Z,91.92
2022-12-28T20:09:27.778Z,91.99
2022-12-28T20:12:00.357Z,92.24
2022-12-28T20:14:29.934Z,92.45
2022-12-28T20:16:59.474Z,92.59
2022-12-28T20:19:29.255Z,92.84
2022-12-28T20:21:58.826Z,92.98
2022-12-28T20:24:28.422Z,93.03
2022-12-28T20:27:01.902Z,93.08
2022-12-28T20:29:31.623Z,93.17
2022-12-28T20:32:01.257Z,93.16
2022-12-28T20:34:30.893Z,93.26
2022-12-28T20:37:00.512Z,93.32
2022-12-28T20:39:30.103Z,93.40
2022-12-28T20:42:14.710Z,93.32
2022-12-28T20:44:44.291Z,93.53
2022-12-28T20:47:13.976Z,93.49
2022-12-28T20:49:43.767Z,93.66
2022-12-28T20:52:13.422Z,93.33
2022-12-28T20:54:43.026Z,93.41
2022-12-28T20:57:15.258Z,93.42
2022-12-28T20:59:44.827Z,93.22
2022-12-28T21:02:14.526Z,93.15
2022-12-28T21:04:44.171Z,93.06
2022-12-28T21:07:14.032Z,93.27
2022-12-28T21:09:45.514Z,92.77
2022-12-28T21:12:17.882Z,92.90
2022-12-28T21:14:47.551Z,92.82
2022-12-28T21:17:17.587Z,92.61
2022-12-28T21:19:47.446Z,92.71
2022-12-28T21:22:17.958Z,92.35
2022-12-28T21:24:47.873Z,92.17
2022-12-28T21:27:20.437Z,92.03
2022-12-28T21:29:49.989Z,91.74
2022-12-28T21:32:19.557Z,91.41
2022-12-28T21:34:49.129Z,91.57
2022-12-28T21:37:31.229Z,91.18
2022-12-28T21:40:00.890Z,91.21
2022-12-28T21:42:33.081Z,91.16
2022-12-28T21:45:02.958Z,91.17
2022-12-28T21:47:32.711Z,91.10
2022-12-28T21:50:02.325Z,91.10
2022-12-28T21:52:32.557Z,91.22
2022-12-28T21:55:22.952Z,91.41
2022-12-28T21:57:55.725Z,91.63
2022-12-28T22:00:37.756Z,91.75
2022-12-28T22:03:20.037Z,91.66
2022-12-28T22:06:02.117Z,91.57
2022-12-28T22:08:44.202Z,91.43
2022-12-28T22:11:36.645Z,91.07
2022-12-28T22:14:09.329Z,91.04
2022-12-28T22:16:40.249Z,91.08
2022-12-28T22:19:09.866Z,91.17
2022-12-28T22:21:39.622Z,91.12
2022-12-28T22:24:09.726Z,91.39
2022-12-28T22:26:39.305Z,91.53
2022-12-28T22:29:12.322Z,91.89
2022-12-28T22:31:43.005Z,92.20
2022-12-28T22:34:12.617Z,92.34
2022-12-28T22:36:42.187Z,92.67
2022-12-28T22:39:12.165Z,92.88
2022-12-28T22:41:41.749Z,93.08
2022-12-28T22:44:14.425Z,93.36
2022-12-28T22:46:44.002Z,93.81
2022-12-28T22:49:13.573Z,93.83
2022-12-28T22:51:43.763Z,94.07
2022-12-28T22:54:13.317Z,94.30
2022-12-28T22:56:42.920Z,94.31
2022-12-28T22:59:16.106Z,94.50
2022-12-28T23:01:48.315Z,94.70
2022-12-28T23:04:18.161Z,94.83
2022-12-28T23:06:47.737Z,94.58
2022-12-28T23:09:17.727Z,94.77
2022-12-28T23:11:47.776Z,94.83
2022-12-28T23:14:37.309Z,94.79
2022-12-28T23:17:13.267Z,94.89
2022-12-28T23:19:55.323Z,94.93
2022-12-28T23:22:39.989Z,95.10
2022-12-28T23:25:23.885Z,95.20
2022-12-28T23:27:53.926Z,95.16
2022-12-28T23:30:26.232Z,95.24
2022-12-28T23:32:56.885Z,95.21
2022-12-28T23:35:28.103Z,95.04
2022-12-28T23:37:58.408Z,95.15
2022-12-28T23:40:29.165Z,95.07
2022-12-28T23:42:58.764Z,95.17
2022-12-28T23:45:30.949Z,95.04
2022-12-28T23:48:00.559Z,94.90
2022-12-28T23:50:30.136Z,94.71
2022-12-28T23:52:59.834Z,94.72
2022-12-28T23:55:29.564Z,94.60
2022-12-28T23:57:59.168Z,94.41
